KMHV/MHV METAR and TAF weather

Enter ICAO airport designator
Station Type Date Time Source
KMHV METAR 2020/07/07 10:00 UTC NOAA

KMHV 071000Z AUTO 29014G22KT 10SM CLR 25/M01 A2991 RMK A01


Station Type Date Time Source
KMHV Decoded METAR 2020/07/07 10:00 UTC NOAA

Mojave, CA, United States (KMHV) 35-04N 118-09W
Jul 07, 2020 - 06:00 AM EDT / 2020.07.07 1000 UTC
Wind: from the WNW (290 degrees) at 16 MPH (14 KT) gusting to 25 MPH (22 KT):0
Visibility: 10 mile(s):0
Sky conditions: clear
Temperature: 77 F (25 C)
Dew Point: 30 F (-1 C)
Relative Humidity: 17%
Pressure (altimeter): 29.91 in. Hg (1012 hPa)
ob: KMHV 071000Z AUTO 29014G22KT 10SM CLR 25/M01 A2991 RMK A01
cycle: 10

Station Type Date Time Source
KMHV TAF UTC NOAA

Error!

Example: see airport list